sensor_id;sensor_type;location;lat;lon;timestamp;temperature;humidity
7411;DHT22;3747;48.628;9.058;2024-03-23T00:55:50;11.00;99.90
7411;DHT22;3747;48.628;9.058;2024-03-23T00:58:16;11.10;99.90
7411;DHT22;3747;48.628;9.058;2024-03-23T01:00:42;11.10;99.90
7411;DHT22;3747;48.628;9.058;2024-03-23T01:03:08;11.00;99.90
7411;DHT22;3747;48.628;9.058;2024-03-23T01:05:35;11.00;99.90
7411;DHT22;3747;48.628;9.058;2024-03-23T01:08:00;10.90;99.90
7411;DHT22;3747;48.628;9.058;2024-03-23T01:10:27;10.80;99.90
7411;DHT22;3747;48.628;9.058;2024-03-23T01:12:54;10.70;99.90
7411;DHT22;3747;48.628;9.058;2024-03-23T01:15:21;10.70;99.90
7411;DHT22;3747;48.628;9.058;2024-03-23T01:17:46;10.70;99.90
7411;DHT22;3747;48.628;9.058;2024-03-23T01:20:13;10.70;99.90
7411;DHT22;3747;48.628;9.058;2024-03-23T01:22:39;10.70;99.90
7411;DHT22;3747;48.628;9.058;2024-03-23T01:25:06;10.70;99.90
7411;DHT22;3747;48.628;9.058;2024-03-23T01:27:33;10.70;99.90
7411;DHT22;3747;48.628;9.058;2024-03-23T01:30:01;10.70;99.90
7411;DHT22;3747;48.628;9.058;2024-03-23T01:32:26;10.70;99.90
7411;DHT22;3747;48.628;9.058;2024-03-23T01:34:53;10.60;99.90
7411;DHT22;3747;48.628;9.058;2024-03-23T01:37:19;10.50;99.90
7411;DHT22;3747;48.628;9.058;2024-03-23T01:39:46;10.60;99.90
7411;DHT22;3747;48.628;9.058;2024-03-23T01:42:12;10.60;99.90
7411;DHT22;3747;48.628;9.058;2024-03-23T01:44:39;10.60;99.90
7411;DHT22;3747;48.628;9.058;2024-03-23T01:47:06;10.60;99.90
7411;DHT22;3747;48.628;9.058;2024-03-23T01:49:33;10.50;99.90
7411;DHT22;3747;48.628;9.058;2024-03-23T01:51:59;10.60;99.90
7411;DHT22;3747;48.628;9.058;2024-03-23T01:54:26;10.70;99.90
7411;DHT22;3747;48.628;9.058;2024-03-23T01:56:52;10.70;99.90
7411;DHT22;3747;48.628;9.058;2024-03-23T01:59:19;10.70;99.90
7411;DHT22;3747;48.628;9.058;2024-03-23T02:01:45;10.80;99.90
7411;DHT22;3747;48.628;9.058;2024-03-23T02:04:13;10.80;99.90
7411;DHT22;3747;48.628;9.058;2024-03-23T02:06:39;10.90;99.90
7411;DHT22;3747;48.628;9.058;2024-03-23T02:09:05;10.90;99.90
7411;DHT22;3747;48.628;9.058;2024-03-23T02:11:31;10.90;99.90
7411;DHT22;3747;48.628;9.058;2024-03-23T02:13:58;10.90;99.90
7411;DHT22;3747;48.628;9.058;2024-03-23T02:16:24;10.70;99.90
7411;DHT22;3747;48.628;9.058;2024-03-23T02:18:50;10.80;99.90
7411;DHT22;3747;48.628;9.058;2024-03-23T02:21:17;10.90;99.90
7411;DHT22;3747;48.628;9.058;2024-03-23T02:23:45;10.90;99.90
7411;DHT22;3747;48.628;9.058;2024-03-23T02:26:11;10.90;99.90
7411;DHT22;3747;48.628;9.058;2024-03-23T02:28:39;10.90;99.90
7411;DHT22;3747;48.628;9.058;2024-03-23T02:31:04;10.80;99.90
7411;DHT22;3747;48.628;9.058;2024-03-23T02:33:31;10.70;99.90
7411;DHT22;3747;48.628;9.058;2024-03-23T02:35:57;10.70;99.90
7411;DHT22;3747;48.628;9.058;2024-03-23T02:38:24;10.60;99.90
7411;DHT22;3747;48.628;9.058;2024-03-23T02:40:51;10.60;99.90
7411;DHT22;3747;48.628;9.058;2024-03-23T02:43:18;10.60;99.90
7411;DHT22;3747;48.628;9.058;2024-03-23T02:45:43;10.50;99.90
7411;DHT22;3747;48.628;9.058;2024-03-23T02:48:10;10.50;99.90
7411;DHT22;3747;48.628;9.058;2024-03-23T02:50:36;10.50;99.90
7411;DHT22;3747;48.628;9.058;2024-03-23T02:53:03;10.40;99.90
7411;DHT22;3747;48.628;9.058;2024-03-23T02:55:29;10.30;99.90
7411;DHT22;3747;48.628;9.058;2024-03-23T02:57:57;10.20;99.90
7411;DHT22;3747;48.628;9.058;2024-03-23T03:00:27;10.20;99.90
7411;DHT22;3747;48.628;9.058;2024-03-23T03:02:54;10.10;99.90
7411;DHT22;3747;48.628;9.058;2024-03-23T03:05:19;10.00;99.90
7411;DHT22;3747;48.628;9.058;2024-03-23T03:07:46;10.00;99.90
7411;DHT22;3747;48.628;9.058;2024-03-23T03:10:12;9.90;99.90
7411;DHT22;3747;48.628;9.058;2024-03-23T03:12:38;9.90;99.90
7411;DHT22;3747;48.628;9.058;2024-03-23T03:15:07;9.80;99.90
7411;DHT22;3747;48.628;9.058;2024-03-23T03:17:34;9.70;99.90
7411;DHT22;3747;48.628;9.058;2024-03-23T03:20:00;9.70;99.90
7411;DHT22;3747;48.628;9.058;2024-03-23T03:22:30;9.70;99.90
7411;DHT22;3747;48.628;9.058;2024-03-23T03:24:55;9.70;99.90
7411;DHT22;3747;48.628;9.058;2024-03-23T03:27:22;9.70;99.90
7411;DHT22;3747;48.628;9.058;2024-03-23T03:29:48;9.60;99.90
7411;DHT22;3747;48.628;9.058;2024-03-23T03:32:16;9.50;99.90
7411;DHT22;3747;48.628;9.058;2024-03-23T03:34:42;9.50;99.90
7411;DHT22;3747;48.628;9.058;2024-03-23T03:37:09;9.40;99.90
7411;DHT22;3747;48.628;9.058;2024-03-23T03:39:34;9.50;99.90
7411;DHT22;3747;48.628;9.058;2024-03-23T03:42:02;9.40;99.90
7411;DHT22;3747;48.628;9.058;2024-03-23T03:44:32;9.40;99.90
7411;DHT22;3747;48.628;9.058;2024-03-23T03:46:58;9.40;99.90
7411;DHT22;3747;48.628;9.058;2024-03-23T03:49:25;9.40;99.90
7411;DHT22;3747;48.628;9.058;2024-03-23T03:51:52;9.40;99.90
7411;DHT22;3747;48.628;9.058;2024-03-23T03:54:18;9.40;99.90
7411;DHT22;3747;48.628;9.058;2024-03-23T03:56:44;9.30;99.90
7411;DHT22;3747;48.628;9.058;2024-03-23T03:59:10;9.40;99.90
7411;DHT22;3747;48.628;9.058;2024-03-23T04:01:37;9.40;99.90
7411;DHT22;3747;48.628;9.058;2024-03-23T04:04:02;9.40;99.90
7411;DHT22;3747;48.628;9.058;2024-03-23T04:06:30;9.40;99.90
7411;DHT22;3747;48.628;9.058;2024-03-23T04:08:56;9.50;99.90
7411;DHT22;3747;48.628;9.058;2024-03-23T04:11:23;9.50;99.90
7411;DHT22;3747;48.628;9.058;2024-03-23T04:13:48;9.60;99.90
7411;DHT22;3747;48.628;9.058;2024-03-23T04:16:24;9.70;99.90
7411;DHT22;3747;48.628;9.058;2024-03-23T04:18:50;9.90;99.90
7411;DHT22;3747;48.628;9.058;2024-03-23T04:21:17;9.80;99.90
7411;DHT22;3747;48.628;9.058;2024-03-23T04:23:44;9.90;99.90
7411;DHT22;3747;48.628;9.058;2024-03-23T04:26:11;9.90;99.90
7411;DHT22;3747;48.628;9.058;2024-03-23T04:28:36;9.90;99.90
7411;DHT22;3747;48.628;9.058;2024-03-23T04:31:03;9.90;99.90
7411;DHT22;3747;48.628;9.058;2024-03-23T04:33:29;9.80;99.90
7411;DHT22;3747;48.628;9.058;2024-03-23T04:35:56;9.80;99.90
7411;DHT22;3747;48.628;9.058;2024-03-23T04:38:21;9.80;99.90
7411;DHT22;3747;48.628;9.058;2024-03-23T04:40:55;9.90;99.90
7411;DHT22;3747;48.628;9.058;2024-03-23T04:43:22;9.80;99.90
7411;DHT22;3747;48.628;9.058;2024-03-23T04:45:48;9.80;99.90
7411;DHT22;3747;48.628;9.058;2024-03-23T04:48:15;9.90;99.90
7411;DHT22;3747;48.628;9.058;2024-03-23T04:50:42;10.10;99.90
7411;DHT22;3747;48.628;9.058;2024-03-23T04:53:08;10.30;99.90
7411;DHT22;3747;48.628;9.058;2024-03-23T04:55:35;10.50;99.90
7411;DHT22;3747;48.628;9.058;2024-03-23T04:58:04;10.30;99.90
7411;DHT22;3747;48.628;9.058;2024-03-23T05:00:30;9.90;99.90
7411;DHT22;3747;48.628;9.058;2024-03-23T05:02:56;9.50;99.90
7411;DHT22;3747;48.628;9.058;2024-03-23T05:05:22;9.10;99.90
7411;DHT22;3747;48.628;9.058;2024-03-23T05:07:49;8.80;99.90
7411;DHT22;3747;48.628;9.058;2024-03-23T05:10:14;8.50;99.90
7411;DHT22;3747;48.628;9.058;2024-03-23T05:12:42;8.40;99.90
7411;DHT22;3747;48.628;9.058;2024-03-23T05:15:11;8.40;99.90
7411;DHT22;3747;48.628;9.058;2024-03-23T05:17:38;8.30;99.90
7411;DHT22;3747;48.628;9.058;2024-03-23T05:20:05;8.30;99.90
7411;DHT22;3747;48.628;9.058;2024-03-23T05:22:35;8.30;99.90
7411;DHT22;3747;48.628;9.058;2024-03-23T05:25:02;8.30;99.90
7411;DHT22;3747;48.628;9.058;2024-03-23T05:27:30;8.40;99.90
7411;DHT22;3747;48.628;9.058;2024-03-23T05:29:56;8.40;99.90
7411;DHT22;3747;48.628;9.058;2024-03-23T05:32:23;8.50;99.90
7411;DHT22;3747;48.628;9.058;2024-03-23T05:34:50;8.40;99.90
7411;DHT22;3747;48.628;9.058;2024-03-23T05:37:21;8.40;99.90
7411;DHT22;3747;48.628;9.058;2024-03-23T05:39:47;8.30;99.90
7411;DHT22;3747;48.628;9.058;2024-03-23T05:42:15;8.30;99.90
7411;DHT22;3747;48.628;9.058;2024-03-23T05:44:43;8.20;99.90
7411;DHT22;3747;48.628;9.058;2024-03-23T05:47:09;8.10;99.90
7411;DHT22;3747;48.628;9.058;2024-03-23T05:49:37;8.10;99.90
7411;DHT22;3747;48.628;9.058;2024-03-23T05:52:03;8.00;99.90
7411;DHT22;3747;48.628;9.058;2024-03-23T05:54:30;7.90;99.90
7411;DHT22;3747;48.628;9.058;2024-03-23T05:56:56;7.90;99.90
7411;DHT22;3747;48.628;9.058;2024-03-23T05:59:22;7.90;99.90
7411;DHT22;3747;48.628;9.058;2024-03-23T06:01:48;7.90;99.90
7411;DHT22;3747;48.628;9.058;2024-03-23T06:04:15;7.80;99.90
7411;DHT22;3747;48.628;9.058;2024-03-23T06:06:42;7.80;99.90
7411;DHT22;3747;48.628;9.058;2024-03-23T06:09:09;7.80;99.90
7411;DHT22;3747;48.628;9.058;2024-03-23T06:11:35;7.80;99.90
7411;DHT22;3747;48.628;9.058;2024-03-23T06:14:01;7.70;99.90
7411;DHT22;3747;48.628;9.058;2024-03-23T06:16:28;7.60;99.90
7411;DHT22;3747;48.628;9.058;2024-03-23T06:18:54;7.50;99.90
7411;DHT22;3747;48.628;9.058;2024-03-23T06:21:21;7.50;99.90
7411;DHT22;3747;48.628;9.058;2024-03-23T06:23:51;7.40;99.90
7411;DHT22;3747;48.628;9.058;2024-03-23T06:26:18;7.40;99.90
7411;DHT22;3747;48.628;9.058;2024-03-23T06:28:43;7.30;99.90
7411;DHT22;3747;48.628;9.058;2024-03-23T06:31:10;7.20;99.90
7411;DHT22;3747;48.628;9.058;2024-03-23T06:33:36;7.10;99.90
7411;DHT22;3747;48.628;9.058;2024-03-23T06:36:04;7.10;99.90
7411;DHT22;3747;48.628;9.058;2024-03-23T06:38:30;7.10;99.90
7411;DHT22;3747;48.628;9.058;2024-03-23T06:40:58;7.00;99.90
7411;DHT22;3747;48.628;9.058;2024-03-23T06:43:24;7.00;99.90
7411;DHT22;3747;48.628;9.058;2024-03-23T06:45:52;7.00;99.90
7411;DHT22;3747;48.628;9.058;2024-03-23T06:48:18;7.10;99.90
7411;DHT22;3747;48.628;9.058;2024-03-23T06:50:45;7.10;99.90
7411;DHT22;3747;48.628;9.058;2024-03-23T06:53:11;7.10;99.90
7411;DHT22;3747;48.628;9.058;2024-03-23T06:55:38;7.10;99.90
7411;DHT22;3747;48.628;9.058;2024-03-23T06:58:05;7.10;99.90
7411;DHT22;3747;48.628;9.058;2024-03-23T07:00:32;7.10;99.90
7411;DHT22;3747;48.628;9.058;2024-03-23T07:02:58;7.10;99.90
7411;DHT22;3747;48.628;9.058;2024-03-23T07:05:24;7.10;99.90
7411;DHT22;3747;48.628;9.058;2024-03-23T07:07:50;7.10;99.90
7411;DHT22;3747;48.628;9.058;2024-03-23T07:10:17;7.10;99.90
7411;DHT22;3747;48.628;9.058;2024-03-23T07:12:43;7.20;99.90
7411;DHT22;3747;48.628;9.058;2024-03-23T07:15:11;7.20;99.90
7411;DHT22;3747;48.628;9.058;2024-03-23T07:17:36;7.30;99.90
7411;DHT22;3747;48.628;9.058;2024-03-23T07:20:04;7.50;99.90
7411;DHT22;3747;48.628;9.058;2024-03-23T07:22:30;8.00;99.90
7411;DHT22;3747;48.628;9.058;2024-03-23T07:24:57;8.50;99.90
7411;DHT22;3747;48.628;9.058;2024-03-23T07:27:23;8.60;99.90
7411;DHT22;3747;48.628;9.058;2024-03-23T07:29:49;8.30;99.90
7411;DHT22;3747;48.628;9.058;2024-03-23T07:32:17;8.00;99.90
7411;DHT22;3747;48.628;9.058;2024-03-23T07:34:43;7.70;99.90
7411;DHT22;3747;48.628;9.058;2024-03-23T07:37:10;7.40;99.90
7411;DHT22;3747;48.628;9.058;2024-03-23T07:39:36;7.40;99.90
7411;DHT22;3747;48.628;9.058;2024-03-23T07:42:03;7.70;99.90
7411;DHT22;3747;48.628;9.058;2024-03-23T07:44:29;8.00;99.90
7411;DHT22;3747;48.628;9.058;2024-03-23T07:46:55;7.80;99.90
7411;DHT22;3747;48.628;9.058;2024-03-23T07:49:23;7.60;99.90
7411;DHT22;3747;48.628;9.058;2024-03-23T07:51:49;7.40;99.90
7411;DHT22;3747;48.628;9.058;2024-03-23T07:54:15;7.30;99.90
7411;DHT22;3747;48.628;9.058;2024-03-23T07:56:42;7.20;99.90
7411;DHT22;3747;48.628;9.058;2024-03-23T07:59:08;7.10;99.90
7411;DHT22;3747;48.628;9.058;2024-03-23T08:01:34;7.20;99.90
7411;DHT22;3747;48.628;9.058;2024-03-23T08:04:00;7.10;99.90
7411;DHT22;3747;48.628;9.058;2024-03-23T08:06:28;7.00;99.90
7411;DHT22;3747;48.628;9.058;2024-03-23T08:08:55;7.10;99.90
7411;DHT22;3747;48.628;9.058;2024-03-23T08:11:26;7.10;99.90
7411;DHT22;3747;48.628;9.058;2024-03-23T08:13:52;7.10;99.90
7411;DHT22;3747;48.628;9.058;2024-03-23T08:16:19;7.00;99.90
7411;DHT22;3747;48.628;9.058;2024-03-23T08:18:44;7.00;99.90
7411;DHT22;3747;48.628;9.058;2024-03-23T08:21:11;6.90;99.90
7411;DHT22;3747;48.628;9.058;2024-03-23T08:23:38;6.90;99.90
7411;DHT22;3747;48.628;9.058;2024-03-23T08:26:06;6.90;99.90
7411;DHT22;3747;48.628;9.058;2024-03-23T08:28:32;6.90;99.90
7411;DHT22;3747;48.628;9.058;2024-03-23T08:31:01;6.90;99.90
7411;DHT22;3747;48.628;9.058;2024-03-23T08:33:27;6.90;99.90
7411;DHT22;3747;48.628;9.058;2024-03-23T08:35:55;7.10;99.90
7411;DHT22;3747;48.628;9.058;2024-03-23T08:38:21;7.20;99.90
7411;DHT22;3747;48.628;9.058;2024-03-23T08:40:56;7.20;99.90
7411;DHT22;3747;48.628;9.058;2024-03-23T08:43:22;7.30;99.90
7411;DHT22;3747;48.628;9.058;2024-03-23T08:45:53;7.40;99.90
7411;DHT22;3747;48.628;9.058;2024-03-23T08:48:29;7.30;99.90
7411;DHT22;3747;48.628;9.058;2024-03-23T08:51:02;7.20;99.90
7411;DHT22;3747;48.628;9.058;2024-03-23T08:53:28;7.20;99.90
7411;DHT22;3747;48.628;9.058;2024-03-23T08:55:57;7.50;99.90
7411;DHT22;3747;48.628;9.058;2024-03-23T08:58:25;7.90;99.90
7411;DHT22;3747;48.628;9.058;2024-03-23T09:00:52;7.80;99.90
7411;DHT22;3747;48.628;9.058;2024-03-23T09:03:18;7.70;99.90
7411;DHT22;3747;48.628;9.058;2024-03-23T09:05:45;7.50;99.90
7411;DHT22;3747;48.628;9.058;2024-03-23T09:08:11;7.10;99.90
7411;DHT22;3747;48.628;9.058;2024-03-23T09:10:43;6.90;99.90
7411;DHT22;3747;48.628;9.058;2024-03-23T09:13:11;6.80;99.90
7411;DHT22;3747;48.628;9.058;2024-03-23T09:15:59;6.40;99.90
7411;DHT22;3747;48.628;9.058;2024-03-23T09:18:39;6.20;99.90
7411;DHT22;3747;48.628;9.058;2024-03-23T09:21:11;6.10;99.90
7411;DHT22;3747;48.628;9.058;2024-03-23T09:23:38;6.10;99.90
7411;DHT22;3747;48.628;9.058;2024-03-23T09:26:05;6.20;99.90
7411;DHT22;3747;48.628;9.058;2024-03-23T09:28:34;6.30;99.90
7411;DHT22;3747;48.628;9.058;2024-03-23T09:31:02;6.50;99.90
7411;DHT22;3747;48.628;9.058;2024-03-23T09:33:28;6.90;99.90
7411;DHT22;3747;48.628;9.058;2024-03-23T09:35:55;7.30;99.90
7411;DHT22;3747;48.628;9.058;2024-03-23T09:38:23;7.70;99.90
7411;DHT22;3747;48.628;9.058;2024-03-23T09:40:53;7.80;99.90
7411;DHT22;3747;48.628;9.058;2024-03-23T09:43:18;7.70;99.90
7411;DHT22;3747;48.628;9.058;2024-03-23T09:45:49;7.50;99.90
7411;DHT22;3747;48.628;9.058;2024-03-23T09:48:22;7.20;99.90
7411;DHT22;3747;48.628;9.058;2024-03-23T09:50:49;7.10;99.90
7411;DHT22;3747;48.628;9.058;2024-03-23T09:53:22;7.30;99.90
7411;DHT22;3747;48.628;9.058;2024-03-23T09:55:49;7.30;99.90
7411;DHT22;3747;48.628;9.058;2024-03-23T09:58:17;7.30;99.90
7411;DHT22;3747;48.628;9.058;2024-03-23T10:00:44;7.40;99.90
7411;DHT22;3747;48.628;9.058;2024-03-23T10:03:46;7.50;99.90
7411;DHT22;3747;48.628;9.058;2024-03-23T10:06:12;7.50;99.90
7411;DHT22;3747;48.628;9.058;2024-03-23T10:08:38;7.80;99.90
7411;DHT22;3747;48.628;9.058;2024-03-23T10:11:15;8.30;99.90
7411;DHT22;3747;48.628;9.058;2024-03-23T10:13:42;8.90;99.90
7411;DHT22;3747;48.628;9.058;2024-03-23T10:16:09;9.30;99.90
7411;DHT22;3747;48.628;9.058;2024-03-23T10:18:42;9.20;99.90
7411;DHT22;3747;48.628;9.058;2024-03-23T10:21:11;9.40;99.90
7411;DHT22;3747;48.628;9.058;2024-03-23T10:23:38;9.70;99.90
7411;DHT22;3747;48.628;9.058;2024-03-23T10:26:13;10.30;99.90
7411;DHT22;3747;48.628;9.058;2024-03-23T10:28:54;10.30;99.90
7411;DHT22;3747;48.628;9.058;2024-03-23T10:31:22;10.50;99.90
7411;DHT22;3747;48.628;9.058;2024-03-23T10:33:49;9.70;99.90
7411;DHT22;3747;48.628;9.058;2024-03-23T10:36:18;8.90;99.90
7411;DHT22;3747;48.628;9.058;2024-03-23T10:38:46;8.80;99.90
7411;DHT22;3747;48.628;9.058;2024-03-23T10:41:12;8.70;99.90
7411;DHT22;3747;48.628;9.058;2024-03-23T10:43:39;8.70;99.90
7411;DHT22;3747;48.628;9.058;2024-03-23T10:46:06;8.30;99.90
7411;DHT22;3747;48.628;9.058;2024-03-23T10:48:32;7.90;99.90
7411;DHT22;3747;48.628;9.058;2024-03-23T10:50:59;7.30;99.90
7411;DHT22;3747;48.628;9.058;2024-03-23T10:53:34;4.80;99.90
7411;DHT22;3747;48.628;9.058;2024-03-23T10:56:03;3.70;99.90
7411;DHT22;3747;48.628;9.058;2024-03-23T10:58:31;3.60;99.90
7411;DHT22;3747;48.628;9.058;2024-03-23T11:00:59;3.80;99.90
7411;DHT22;3747;48.628;9.058;2024-03-23T11:03:35;4.10;99.90
7411;DHT22;3747;48.628;9.058;2024-03-23T11:06:03;4.40;99.90
7411;DHT22;3747;48.628;9.058;2024-03-23T11:08:34;4.70;99.90
7411;DHT22;3747;48.628;9.058;2024-03-23T11:11:14;4.80;99.90
7411;DHT22;3747;48.628;9.058;2024-03-23T11:13:42;4.80;99.90
7411;DHT22;3747;48.628;9.058;2024-03-23T11:16:16;4.80;99.90
7411;DHT22;3747;48.628;9.058;2024-03-23T11:18:42;5.40;99.90
7411;DHT22;3747;48.628;9.058;2024-03-23T11:21:09;5.50;99.90
7411;DHT22;3747;48.628;9.058;2024-03-23T11:23:37;5.60;99.90
7411;DHT22;3747;48.628;9.058;2024-03-23T11:26:07;5.60;99.90
7411;DHT22;3747;48.628;9.058;2024-03-23T11:28:33;5.70;99.90
7411;DHT22;3747;48.628;9.058;2024-03-23T11:30:59;6.00;99.90
7411;DHT22;3747;48.628;9.058;2024-03-23T11:33:25;6.30;99.90
7411;DHT22;3747;48.628;9.058;2024-03-23T11:35:52;6.30;99.90
7411;DHT22;3747;48.628;9.058;2024-03-23T11:38:18;6.10;99.90
7411;DHT22;3747;48.628;9.058;2024-03-23T11:40:47;6.00;99.90
7411;DHT22;3747;48.628;9.058;2024-03-23T11:43:14;6.00;99.90
7411;DHT22;3747;48.628;9.058;2024-03-23T11:45:43;6.10;99.90
7411;DHT22;3747;48.628;9.058;2024-03-23T11:48:10;6.30;99.90
7411;DHT22;3747;48.628;9.058;2024-03-23T11:50:38;6.40;99.90
7411;DHT22;3747;48.628;9.058;2024-03-23T11:53:13;6.50;99.90
7411;DHT22;3747;48.628;9.058;2024-03-23T11:55:42;6.70;99.90
7411;DHT22;3747;48.628;9.058;2024-03-23T11:58:09;7.00;99.90
7411;DHT22;3747;48.628;9.058;2024-03-23T12:00:36;6.90;99.90
7411;DHT22;3747;48.628;9.058;2024-03-23T12:03:02;7.00;99.90
7411;DHT22;3747;48.628;9.058;2024-03-23T12:05:29;7.50;99.90
7411;DHT22;3747;48.628;9.058;2024-03-23T12:07:55;7.60;99.90
7411;DHT22;3747;48.628;9.058;2024-03-23T12:10:43;7.50;99.90
7411;DHT22;3747;48.628;9.058;2024-03-23T12:13:11;7.40;99.90
7411;DHT22;3747;48.628;9.058;2024-03-23T12:15:37;7.40;99.90
7411;DHT22;3747;48.628;9.058;2024-03-23T12:18:07;7.60;99.90
7411;DHT22;3747;48.628;9.058;2024-03-23T12:20:34;7.50;99.90
7411;DHT22;3747;48.628;9.058;2024-03-23T12:23:05;7.50;99.90
7411;DHT22;3747;48.628;9.058;2024-03-23T12:25:33;7.40;99.90
7411;DHT22;3747;48.628;9.058;2024-03-23T12:27:59;7.30;99.90
7411;DHT22;3747;48.628;9.058;2024-03-23T12:30:27;7.30;99.90
7411;DHT22;3747;48.628;9.058;2024-03-23T12:32:53;7.10;99.90
7411;DHT22;3747;48.628;9.058;2024-03-23T12:35:20;7.20;99.90
7411;DHT22;3747;48.628;9.058;2024-03-23T12:37:46;7.30;99.90
7411;DHT22;3747;48.628;9.058;2024-03-23T12:40:13;7.60;99.90
7411;DHT22;3747;48.628;9.058;2024-03-23T12:42:38;7.80;99.90
7411;DHT22;3747;48.628;9.058;2024-03-23T12:45:06;7.80;99.90
7411;DHT22;3747;48.628;9.058;2024-03-23T12:47:33;7.60;99.90
7411;DHT22;3747;48.628;9.058;2024-03-23T12:50:00;7.40;99.90
7411;DHT22;3747;48.628;9.058;2024-03-23T12:52:26;7.10;99.90
7411;DHT22;3747;48.628;9.058;2024-03-23T12:54:54;7.10;99.90
7411;DHT22;3747;48.628;9.058;2024-03-23T12:57:22;7.30;99.90
7411;DHT22;3747;48.628;9.058;2024-03-23T12:59:49;7.90;99.90
7411;DHT22;3747;48.628;9.058;2024-03-23T13:02:17;8.10;99.90
7411;DHT22;3747;48.628;9.058;2024-03-23T13:04:46;7.90;99.90
7411;DHT22;3747;48.628;9.058;2024-03-23T13:07:12;7.60;99.90
7411;DHT22;3747;48.628;9.058;2024-03-23T13:09:39;7.40;99.90
7411;DHT22;3747;48.628;9.058;2024-03-23T13:12:05;7.20;99.90
7411;DHT22;3747;48.628;9.058;2024-03-23T13:14:32;6.70;99.90
7411;DHT22;3747;48.628;9.058;2024-03-23T13:16:57;5.80;99.90
7411;DHT22;3747;48.628;9.058;2024-03-23T13:19:24;5.40;99.90
7411;DHT22;3747;48.628;9.058;2024-03-23T13:21:53;5.00;99.90
7411;DHT22;3747;48.628;9.058;2024-03-23T13:24:22;4.70;99.90
7411;DHT22;3747;48.628;9.058;2024-03-23T13:26:49;5.90;99.90
7411;DHT22;3747;48.628;9.058;2024-03-23T13:29:16;5.80;99.90
7411;DHT22;3747;48.628;9.058;2024-03-23T13:31:42;6.40;99.90
7411;DHT22;3747;48.628;9.058;2024-03-23T13:34:08;7.20;99.90
7411;DHT22;3747;48.628;9.058;2024-03-23T13:36:34;7.70;99.90
7411;DHT22;3747;48.628;9.058;2024-03-23T13:39:02;8.10;99.90
7411;DHT22;3747;48.628;9.058;2024-03-23T13:41:31;9.00;99.90
7411;DHT22;3747;48.628;9.058;2024-03-23T13:43:58;9.50;99.90
7411;DHT22;3747;48.628;9.058;2024-03-23T13:46:24;9.20;99.90
7411;DHT22;3747;48.628;9.058;2024-03-23T13:48:50;9.00;99.90
7411;DHT22;3747;48.628;9.058;2024-03-23T13:51:23;8.80;99.90
7411;DHT22;3747;48.628;9.058;2024-03-23T13:53:57;8.80;99.90
7411;DHT22;3747;48.628;9.058;2024-03-23T13:56:27;8.90;99.90
7411;DHT22;3747;48.628;9.058;2024-03-23T13:58:55;9.50;99.90
7411;DHT22;3747;48.628;9.058;2024-03-23T14:01:21;9.70;99.90
7411;DHT22;3747;48.628;9.058;2024-03-23T14:07:03;8.80;99.90
7411;DHT22;3747;48.628;9.058;2024-03-23T14:09:30;8.30;99.90
7411;DHT22;3747;48.628;9.058;2024-03-23T14:12:30;7.80;99.90
7411;DHT22;3747;48.628;9.058;2024-03-23T14:15:05;7.00;99.90
7411;DHT22;3747;48.628;9.058;2024-03-23T14:17:31;5.90;99.90
7411;DHT22;3747;48.628;9.058;2024-03-23T14:20:09;5.40;99.90
7411;DHT22;3747;48.628;9.058;2024-03-23T14:22:36;6.30;99.90
7411;DHT22;3747;48.628;9.058;2024-03-23T14:25:04;7.00;99.90
7411;DHT22;3747;48.628;9.058;2024-03-23T14:27:31;7.40;99.90
7411;DHT22;3747;48.628;9.058;2024-03-23T14:29:58;7.70;99.90
7411;DHT22;3747;48.628;9.058;2024-03-23T14:32:40;8.40;99.90
7411;DHT22;3747;48.628;9.058;2024-03-23T14:35:07;9.00;99.90
7411;DHT22;3747;48.628;9.058;2024-03-23T14:37:36;9.20;99.90
7411;DHT22;3747;48.628;9.058;2024-03-23T14:40:04;8.50;99.90
7411;DHT22;3747;48.628;9.058;2024-03-23T14:42:31;7.80;99.90
7411;DHT22;3747;48.628;9.058;2024-03-23T14:44:58;7.40;99.90
7411;DHT22;3747;48.628;9.058;2024-03-23T14:47:24;7.10;99.90
7411;DHT22;3747;48.628;9.058;2024-03-23T14:49:51;6.60;99.90
7411;DHT22;3747;48.628;9.058;2024-03-23T14:52:30;6.30;99.90
7411;DHT22;3747;48.628;9.058;2024-03-23T14:55:11;6.10;99.90
7411;DHT22;3747;48.628;9.058;2024-03-23T14:57:54;5.80;99.90
7411;DHT22;3747;48.628;9.058;2024-03-23T15:00:21;5.40;99.90
7411;DHT22;3747;48.628;9.058;2024-03-23T15:02:47;5.30;99.90
7411;DHT22;3747;48.628;9.058;2024-03-23T15:05:13;5.20;99.90
7411;DHT22;3747;48.628;9.058;2024-03-23T15:07:40;5.10;99.90
7411;DHT22;3747;48.628;9.058;2024-03-23T15:10:07;5.10;99.90
7411;DHT22;3747;48.628;9.058;2024-03-23T15:12:35;5.40;99.90
7411;DHT22;3747;48.628;9.058;2024-03-23T15:15:04;6.40;99.90
7411;DHT22;3747;48.628;9.058;2024-03-23T15:17:30;7.40;99.90
7411;DHT22;3747;48.628;9.058;2024-03-23T15:19:59;8.40;99.90
7411;DHT22;3747;48.628;9.058;2024-03-23T15:22:25;9.00;99.90
7411;DHT22;3747;48.628;9.058;2024-03-23T15:24:52;9.50;99.90
7411;DHT22;3747;48.628;9.058;2024-03-23T15:27:18;9.20;99.90
7411;DHT22;3747;48.628;9.058;2024-03-23T15:29:44;7.80;99.90
7411;DHT22;3747;48.628;9.058;2024-03-23T15:32:12;7.10;99.90
7411;DHT22;3747;48.628;9.058;2024-03-23T15:34:42;7.10;99.90
7411;DHT22;3747;48.628;9.058;2024-03-23T15:37:08;6.70;99.90
7411;DHT22;3747;48.628;9.058;2024-03-23T15:39:35;6.30;99.90
7411;DHT22;3747;48.628;9.058;2024-03-23T15:42:00;6.00;99.90
7411;DHT22;3747;48.628;9.058;2024-03-23T15:44:29;5.90;99.90
7411;DHT22;3747;48.628;9.058;2024-03-23T15:46:55;5.90;99.90
7411;DHT22;3747;48.628;9.058;2024-03-23T15:49:23;6.00;99.90
7411;DHT22;3747;48.628;9.058;2024-03-23T15:51:49;6.00;99.90
7411;DHT22;3747;48.628;9.058;2024-03-23T15:54:15;5.60;99.90
7411;DHT22;3747;48.628;9.058;2024-03-23T15:56:42;5.20;99.90
7411;DHT22;3747;48.628;9.058;2024-03-23T15:59:09;5.10;99.90
7411;DHT22;3747;48.628;9.058;2024-03-23T16:01:34;4.90;99.90
7411;DHT22;3747;48.628;9.058;2024-03-23T16:04:03;4.80;99.90
7411;DHT22;3747;48.628;9.058;2024-03-23T16:06:30;4.90;99.90
7411;DHT22;3747;48.628;9.058;2024-03-23T16:08:56;5.20;99.90
7411;DHT22;3747;48.628;9.058;2024-03-23T16:11:22;5.40;99.90
7411;DHT22;3747;48.628;9.058;2024-03-23T16:13:49;5.20;99.90
7411;DHT22;3747;48.628;9.058;2024-03-23T16:16:24;4.80;99.90
7411;DHT22;3747;48.628;9.058;2024-03-23T16:18:50;4.70;99.90
7411;DHT22;3747;48.628;9.058;2024-03-23T16:21:21;4.70;99.90
7411;DHT22;3747;48.628;9.058;2024-03-23T16:23:51;4.80;99.90
7411;DHT22;3747;48.628;9.058;2024-03-23T16:26:17;5.00;99.90
7411;DHT22;3747;48.628;9.058;2024-03-23T16:28:44;5.50;99.90
7411;DHT22;3747;48.628;9.058;2024-03-23T16:31:11;5.80;99.90
7411;DHT22;3747;48.628;9.058;2024-03-23T16:33:56;6.20;99.90
7411;DHT22;3747;48.628;9.058;2024-03-23T16:36:21;6.50;99.90
7411;DHT22;3747;48.628;9.058;2024-03-23T16:38:48;6.80;99.90
7411;DHT22;3747;48.628;9.058;2024-03-23T16:41:15;7.40;99.90
7411;DHT22;3747;48.628;9.058;2024-03-23T16:43:42;7.60;99.90
7411;DHT22;3747;48.628;9.058;2024-03-23T16:46:10;7.60;99.90
7411;DHT22;3747;48.628;9.058;2024-03-23T16:48:37;7.50;99.90
7411;DHT22;3747;48.628;9.058;2024-03-23T16:51:04;7.30;99.90
7411;DHT22;3747;48.628;9.058;2024-03-23T16:53:30;7.00;99.90
7411;DHT22;3747;48.628;9.058;2024-03-23T16:55:57;6.70;99.90
7411;DHT22;3747;48.628;9.058;2024-03-23T16:58:34;6.30;99.90
7411;DHT22;3747;48.628;9.058;2024-03-23T17:01:02;5.70;99.90
7411;DHT22;3747;48.628;9.058;2024-03-23T17:03:28;5.30;99.90
7411;DHT22;3747;48.628;9.058;2024-03-23T17:05:55;5.00;99.90
7411;DHT22;3747;48.628;9.058;2024-03-23T17:08:21;4.80;99.90
7411;DHT22;3747;48.628;9.058;2024-03-23T17:10:48;4.60;99.90
7411;DHT22;3747;48.628;9.058;2024-03-23T17:13:13;4.50;99.90
7411;DHT22;3747;48.628;9.058;2024-03-23T17:15:45;4.40;99.90